EWG6931 EDDS-EDDH
Flight info
| Callsign | EWG6931 |
|---|---|
| Flight time | 0h 53m |
| Altitude | 36000 |
| Route | OKIBA4B OKIBA N851 RIMKI Z99 LOHRE DCT MASEK DCT ELNAT P605 NORTA/N0443F380 P605 NOLGO NOLGO3P |
| Aircraft | A321/M-SDE3FGHIRWY/LB1 |
Departure
| Time | 2026-05-04 20:05 |
|---|---|
| Airport | Stuttgart Airport (EDDS) |
Arrival
| Time | 2026-05-04 20:58 |
|---|---|
| Airport | Hamburg Helmut Schmidt Airport (EDDH) |
| Time | Latitude | Longitude | Altitude | Speed | Heading |
|---|---|---|---|---|---|
| 2026-05-04 19:28 | 48.68856 | 9.19213 | 1316 ft | 0 kts | 344° |
| 2026-05-04 19:51 | 48.68842 | 9.19219 | 1316 ft | 3 kts | 344° |
| 2026-05-04 19:51 | 48.68819 | 9.19229 | 1315 ft | 3 kts | 344° |
| 2026-05-04 19:51 | 48.68799 | 9.19237 | 1315 ft | 3 kts | 355° |
| 2026-05-04 19:51 | 48.68779 | 9.19233 | 1316 ft | 3 kts | 47° |
| 2026-05-04 19:52 | 48.68770 | 9.19203 | 1317 ft | 3 kts | 81° |
| 2026-05-04 19:52 | 48.68767 | 9.19171 | 1317 ft | 1 kts | 74° |
| 2026-05-04 19:52 | 48.68767 | 9.19170 | 1317 ft | 1 kts | 74° |
| 2026-05-04 19:55 | 48.68767 | 9.19171 | 1317 ft | 1 kts | 74° |
| 2026-05-04 19:55 | 48.68771 | 9.19195 | 1317 ft | 5 kts | 74° |
| 2026-05-04 19:55 | 48.68789 | 9.19289 | 1315 ft | 14 kts | 74° |
| 2026-05-04 19:55 | 48.68818 | 9.19442 | 1312 ft | 16 kts | 74° |
| 2026-05-04 19:56 | 48.68851 | 9.19620 | 1309 ft | 19 kts | 73° |
| 2026-05-04 19:56 | 48.68884 | 9.19794 | 1305 ft | 15 kts | 73° |
| 2026-05-04 19:56 | 48.68839 | 9.19890 | 1299 ft | 13 kts | 167° |
| 2026-05-04 19:56 | 48.68832 | 9.20009 | 1295 ft | 15 kts | 62° |
| 2026-05-04 19:57 | 48.68865 | 9.20175 | 1291 ft | 18 kts | 74° |
| 2026-05-04 19:57 | 48.68904 | 9.20381 | 1286 ft | 22 kts | 75° |
| 2026-05-04 19:57 | 48.68951 | 9.20628 | 1281 ft | 26 kts | 74° |
| 2026-05-04 19:57 | 48.68993 | 9.20857 | 1276 ft | 16 kts | 74° |
| 2026-05-04 19:58 | 48.69028 | 9.21036 | 1270 ft | 20 kts | 74° |
| 2026-05-04 19:58 | 48.69068 | 9.21255 | 1267 ft | 23 kts | 74° |
| 2026-05-04 19:58 | 48.69118 | 9.21511 | 1264 ft | 27 kts | 73° |
| 2026-05-04 19:58 | 48.69170 | 9.21780 | 1258 ft | 26 kts | 74° |
| 2026-05-04 19:59 | 48.69221 | 9.22057 | 1252 ft | 29 kts | 74° |
| 2026-05-04 19:59 | 48.69279 | 9.22362 | 1240 ft | 30 kts | 74° |
| 2026-05-04 19:59 | 48.69336 | 9.22661 | 1233 ft | 28 kts | 73° |
| 2026-05-04 19:59 | 48.69390 | 9.22946 | 1227 ft | 26 kts | 74° |
| 2026-05-04 20:00 | 48.69441 | 9.23214 | 1226 ft | 27 kts | 74° |
| 2026-05-04 20:00 | 48.69491 | 9.23475 | 1242 ft | 25 kts | 74° |
| 2026-05-04 20:00 | 48.69535 | 9.23712 | 1257 ft | 22 kts | 74° |
| 2026-05-04 20:00 | 48.69575 | 9.23924 | 1273 ft | 21 kts | 73° |
| 2026-05-04 20:01 | 48.69610 | 9.24112 | 1273 ft | 14 kts | 80° |
| 2026-05-04 20:01 | 48.69573 | 9.24259 | 1263 ft | 16 kts | 123° |
| 2026-05-04 20:01 | 48.69503 | 9.24316 | 1249 ft | 0 kts | 164° |
| 2026-05-04 20:04 | 48.69480 | 9.24325 | 1246 ft | 11 kts | 166° |
| 2026-05-04 20:04 | 48.69377 | 9.24310 | 1191 ft | 2 kts | 239° |
| 2026-05-04 20:04 | 48.69360 | 9.24214 | 1193 ft | 33 kts | 254° |
| 2026-05-04 20:04 | 48.69228 | 9.23491 | 1208 ft | 107 kts | 254° |
| 2026-05-04 20:05 | 48.68981 | 9.22128 | 1363 ft | 149 kts | 256° |
| 2026-05-04 20:05 | 48.68705 | 9.20644 | 2107 ft | 147 kts | 256° |
| 2026-05-04 20:05 | 48.68424 | 9.19173 | 2702 ft | 151 kts | 257° |
| 2026-05-04 20:05 | 48.68110 | 9.17532 | 3006 ft | 174 kts | 256° |
| 2026-05-04 20:06 | 48.67751 | 9.15662 | 3322 ft | 196 kts | 255° |
| 2026-05-04 20:06 | 48.67343 | 9.13578 | 3584 ft | 217 kts | 254° |
| 2026-05-04 20:06 | 48.66990 | 9.11238 | 3795 ft | 240 kts | 271° |
| 2026-05-04 20:06 | 48.67494 | 9.08831 | 4273 ft | 246 kts | 301° |
| 2026-05-04 20:07 | 48.68593 | 9.06822 | 4846 ft | 253 kts | 327° |
| 2026-05-04 20:07 | 48.70256 | 9.05814 | 5357 ft | 268 kts | 348° |
| 2026-05-04 20:07 | 48.72106 | 9.05124 | 5966 ft | 279 kts | 344° |
| 2026-05-04 20:07 | 48.74011 | 9.04444 | 6675 ft | 285 kts | 354° |
| 2026-05-04 20:08 | 48.76003 | 9.04637 | 7362 ft | 290 kts | 15° |
| 2026-05-04 20:08 | 48.77844 | 9.05882 | 8049 ft | 293 kts | 37° |
| 2026-05-04 20:08 | 48.79265 | 9.08025 | 8774 ft | 293 kts | 57° |
| 2026-05-04 20:08 | 48.80439 | 9.10579 | 9504 ft | 298 kts | 58° |
| 2026-05-04 20:09 | 48.81639 | 9.13180 | 10174 ft | 305 kts | 58° |
| 2026-05-04 20:09 | 48.82901 | 9.15911 | 10368 ft | 328 kts | 58° |
| 2026-05-04 20:09 | 48.84247 | 9.18824 | 10682 ft | 344 kts | 57° |
| 2026-05-04 20:09 | 48.85635 | 9.21821 | 11292 ft | 349 kts | 57° |
| 2026-05-04 20:10 | 48.87038 | 9.24840 | 11962 ft | 352 kts | 57° |
| 2026-05-04 20:10 | 48.88478 | 9.27863 | 12642 ft | 355 kts | 52° |
| 2026-05-04 20:10 | 48.90276 | 9.30479 | 13298 ft | 361 kts | 38° |
| 2026-05-04 20:10 | 48.92465 | 9.32390 | 13934 ft | 366 kts | 23° |
| 2026-05-04 20:11 | 48.94919 | 9.33437 | 14512 ft | 369 kts | 7° |
| 2026-05-04 20:11 | 48.97491 | 9.33549 | 15089 ft | 372 kts | 355° |
| 2026-05-04 20:11 | 49.00055 | 9.33323 | 15660 ft | 375 kts | 356° |
| 2026-05-04 20:11 | 49.02663 | 9.33105 | 16238 ft | 379 kts | 356° |
| 2026-05-04 20:12 | 49.05303 | 9.32892 | 16819 ft | 382 kts | 356° |
| 2026-05-04 20:12 | 49.07976 | 9.32682 | 17382 ft | 386 kts | 356° |
| 2026-05-04 20:12 | 49.10665 | 9.32474 | 17933 ft | 390 kts | 356° |
| 2026-05-04 20:12 | 49.13384 | 9.32261 | 18446 ft | 393 kts | 356° |
| 2026-05-04 20:13 | 49.16131 | 9.32040 | 18938 ft | 396 kts | 355° |
| 2026-05-04 20:13 | 49.18893 | 9.31816 | 19419 ft | 399 kts | 355° |
| 2026-05-04 20:13 | 49.21677 | 9.31590 | 19924 ft | 402 kts | 355° |
| 2026-05-04 20:13 | 49.24478 | 9.31367 | 20414 ft | 404 kts | 355° |
| 2026-05-04 20:14 | 49.27290 | 9.31150 | 20908 ft | 407 kts | 355° |
| 2026-05-04 20:14 | 49.30130 | 9.30934 | 21383 ft | 409 kts | 355° |
| 2026-05-04 20:14 | 49.32983 | 9.30715 | 21860 ft | 412 kts | 355° |
| 2026-05-04 20:14 | 49.35817 | 9.30610 | 22312 ft | 415 kts | 1° |
| 2026-05-04 20:15 | 49.38710 | 9.31003 | 22747 ft | 420 kts | 4° |
| 2026-05-04 20:15 | 49.41634 | 9.31444 | 23134 ft | 424 kts | 4° |
| 2026-05-04 20:15 | 49.44580 | 9.31881 | 23546 ft | 427 kts | 3° |
| 2026-05-04 20:15 | 49.47550 | 9.32317 | 23905 ft | 430 kts | 3° |
| 2026-05-04 20:16 | 49.50539 | 9.32759 | 24279 ft | 433 kts | 3° |
| 2026-05-04 20:16 | 49.53546 | 9.33202 | 24650 ft | 435 kts | 3° |
| 2026-05-04 20:16 | 49.56569 | 9.33647 | 25017 ft | 438 kts | 3° |
| 2026-05-04 20:16 | 49.59615 | 9.34097 | 25385 ft | 441 kts | 3° |
| 2026-05-04 20:17 | 49.62651 | 9.34546 | 25738 ft | 443 kts | 3° |
| 2026-05-04 20:17 | 49.65688 | 9.34995 | 26092 ft | 446 kts | 3° |
| 2026-05-04 20:17 | 49.68779 | 9.35455 | 26445 ft | 448 kts | 3° |
| 2026-05-04 20:17 | 49.71893 | 9.35925 | 26802 ft | 451 kts | 3° |
| 2026-05-04 20:18 | 49.75017 | 9.36493 | 27146 ft | 454 kts | 8° |
| 2026-05-04 20:18 | 49.78105 | 9.37606 | 27484 ft | 458 kts | 12° |
| 2026-05-04 20:18 | 49.81205 | 9.38808 | 27832 ft | 460 kts | 12° |
| 2026-05-04 20:18 | 49.84315 | 9.40006 | 28221 ft | 461 kts | 12° |
| 2026-05-04 20:19 | 49.87437 | 9.41206 | 28589 ft | 463 kts | 12° |
| 2026-05-04 20:19 | 49.90574 | 9.42410 | 28933 ft | 465 kts | 12° |
| 2026-05-04 20:19 | 49.93727 | 9.43619 | 29273 ft | 468 kts | 12° |
| 2026-05-04 20:19 | 49.96851 | 9.44819 | 29616 ft | 470 kts | 12° |
| 2026-05-04 20:20 | 50.00035 | 9.46044 | 29929 ft | 473 kts | 12° |
| 2026-05-04 20:20 | 50.03233 | 9.47280 | 30218 ft | 475 kts | 12° |
| 2026-05-04 20:20 | 50.06451 | 9.48481 | 30531 ft | 475 kts | 8° |
| 2026-05-04 20:20 | 50.09721 | 9.49163 | 30806 ft | 475 kts | 4° |
| 2026-05-04 20:21 | 50.13014 | 9.49703 | 31061 ft | 477 kts | 3° |
| 2026-05-04 20:21 | 50.16318 | 9.50244 | 31306 ft | 479 kts | 3° |
| 2026-05-04 20:21 | 50.22967 | 9.51346 | 31816 ft | 481 kts | 4° |
| 2026-05-04 20:22 | 50.26294 | 9.51905 | 32151 ft | 481 kts | 3° |
| 2026-05-04 20:22 | 50.29577 | 9.52462 | 32509 ft | 480 kts | 3° |
| 2026-05-04 20:22 | 50.32891 | 9.53022 | 32816 ft | 479 kts | 3° |
| 2026-05-04 20:22 | 50.36205 | 9.53583 | 33130 ft | 479 kts | 3° |
| 2026-05-04 20:23 | 50.39515 | 9.54145 | 33456 ft | 479 kts | 3° |
| 2026-05-04 20:23 | 50.42828 | 9.54707 | 33763 ft | 478 kts | 3° |
| 2026-05-04 20:23 | 50.46138 | 9.55265 | 34062 ft | 478 kts | 3° |
| 2026-05-04 20:23 | 50.49445 | 9.55824 | 34346 ft | 478 kts | 3° |
| 2026-05-04 20:24 | 50.52752 | 9.56385 | 34593 ft | 478 kts | 3° |
| 2026-05-04 20:24 | 50.56055 | 9.56948 | 34837 ft | 478 kts | 3° |
| 2026-05-04 20:24 | 50.59356 | 9.57509 | 35094 ft | 477 kts | 3° |
| 2026-05-04 20:24 | 50.62617 | 9.58064 | 35352 ft | 477 kts | 3° |
| 2026-05-04 20:25 | 50.65914 | 9.58626 | 35616 ft | 476 kts | 3° |
| 2026-05-04 20:25 | 50.69204 | 9.59188 | 35876 ft | 476 kts | 3° |
| 2026-05-04 20:25 | 50.72494 | 9.59749 | 35982 ft | 474 kts | 3° |
| 2026-05-04 20:25 | 50.75764 | 9.60327 | 36004 ft | 471 kts | 4° |
| 2026-05-04 20:26 | 50.82255 | 9.61589 | 35998 ft | 470 kts | 4° |
| 2026-05-04 20:26 | 50.88740 | 9.62883 | 35998 ft | 469 kts | 4° |
| 2026-05-04 20:27 | 50.95174 | 9.64161 | 35999 ft | 469 kts | 4° |
| 2026-05-04 20:27 | 51.01649 | 9.65426 | 36006 ft | 469 kts | 4° |
| 2026-05-04 20:28 | 51.08122 | 9.66677 | 35999 ft | 469 kts | 4° |
| 2026-05-04 20:28 | 51.14604 | 9.67936 | 36004 ft | 469 kts | 4° |
| 2026-05-04 20:29 | 51.21081 | 9.69211 | 36016 ft | 469 kts | 3° |
| 2026-05-04 20:29 | 51.27564 | 9.70346 | 36012 ft | 468 kts | 2° |
| 2026-05-04 20:30 | 51.33998 | 9.71333 | 36020 ft | 468 kts | 1° |
| 2026-05-04 20:30 | 51.40475 | 9.72328 | 36015 ft | 468 kts | 2° |
| 2026-05-04 20:31 | 51.46950 | 9.73382 | 36024 ft | 467 kts | 2° |
| 2026-05-04 20:31 | 51.53404 | 9.74533 | 36017 ft | 467 kts | 3° |
| 2026-05-04 20:32 | 51.59851 | 9.75797 | 36012 ft | 467 kts | 3° |
| 2026-05-04 20:32 | 51.66295 | 9.77059 | 36022 ft | 466 kts | 2° |
| 2026-05-04 20:33 | 51.72732 | 9.78286 | 36014 ft | 466 kts | 2° |
| 2026-05-04 20:33 | 51.79167 | 9.79493 | 36012 ft | 466 kts | 2° |
| 2026-05-04 20:34 | 51.82376 | 9.80105 | 35678 ft | 463 kts | 2° |
| 2026-05-04 20:34 | 51.85568 | 9.80721 | 35103 ft | 462 kts | 2° |
| 2026-05-04 20:34 | 51.88713 | 9.81333 | 34665 ft | 459 kts | 2° |
| 2026-05-04 20:34 | 51.91869 | 9.81951 | 34227 ft | 455 kts | 2° |
| 2026-05-04 20:35 | 51.95002 | 9.82564 | 33736 ft | 452 kts | 1° |
| 2026-05-04 20:35 | 51.98113 | 9.83167 | 33201 ft | 449 kts | 1° |
| 2026-05-04 20:35 | 52.01203 | 9.83764 | 32690 ft | 445 kts | 1° |
| 2026-05-04 20:35 | 52.04272 | 9.84357 | 32173 ft | 442 kts | 1° |
| 2026-05-04 20:36 | 52.07314 | 9.84947 | 31665 ft | 439 kts | 1° |
| 2026-05-04 20:36 | 52.10339 | 9.85534 | 31164 ft | 436 kts | 1° |
| 2026-05-04 20:36 | 52.13338 | 9.86119 | 30699 ft | 433 kts | 1° |
| 2026-05-04 20:36 | 52.16320 | 9.86704 | 30227 ft | 430 kts | 1° |
| 2026-05-04 20:37 | 52.19234 | 9.87277 | 29707 ft | 427 kts | 1° |
| 2026-05-04 20:37 | 52.22159 | 9.87854 | 29171 ft | 424 kts | 1° |
| 2026-05-04 20:37 | 52.25077 | 9.88497 | 28650 ft | 423 kts | 6° |
| 2026-05-04 20:37 | 52.27924 | 9.89658 | 28144 ft | 422 kts | 10° |
| 2026-05-04 20:38 | 52.30760 | 9.90902 | 27649 ft | 419 kts | 11° |
| 2026-05-04 20:38 | 52.33565 | 9.92135 | 27176 ft | 416 kts | 11° |
| 2026-05-04 20:38 | 52.36346 | 9.93360 | 26735 ft | 412 kts | 11° |
| 2026-05-04 20:38 | 52.39105 | 9.94513 | 26286 ft | 406 kts | 7° |
| 2026-05-04 20:39 | 52.41826 | 9.95395 | 25824 ft | 403 kts | 7° |
| 2026-05-04 20:39 | 52.44574 | 9.96210 | 25362 ft | 400 kts | 6° |
| 2026-05-04 20:39 | 52.47308 | 9.96973 | 24910 ft | 397 kts | 6° |
| 2026-05-04 20:39 | 52.50019 | 9.97716 | 24458 ft | 394 kts | 6° |
| 2026-05-04 20:40 | 52.52718 | 9.98464 | 24018 ft | 392 kts | 7° |
| 2026-05-04 20:40 | 52.55393 | 9.99220 | 23564 ft | 389 kts | 7° |
| 2026-05-04 20:40 | 52.58052 | 9.99985 | 23042 ft | 386 kts | 7° |
| 2026-05-04 20:40 | 52.60686 | 10.00749 | 22550 ft | 383 kts | 7° |
| 2026-05-04 20:41 | 52.63303 | 10.01509 | 22061 ft | 379 kts | 7° |
| 2026-05-04 20:41 | 52.65891 | 10.02263 | 21592 ft | 376 kts | 7° |
| 2026-05-04 20:41 | 52.68453 | 10.03013 | 21133 ft | 373 kts | 7° |
| 2026-05-04 20:41 | 52.70995 | 10.03759 | 20674 ft | 370 kts | 8° |
| 2026-05-04 20:42 | 52.73483 | 10.04489 | 20203 ft | 366 kts | 8° |
| 2026-05-04 20:42 | 52.75982 | 10.05222 | 19764 ft | 363 kts | 8° |
| 2026-05-04 20:42 | 52.78457 | 10.05943 | 19322 ft | 360 kts | 8° |
| 2026-05-04 20:42 | 52.80922 | 10.06659 | 18887 ft | 357 kts | 8° |
| 2026-05-04 20:43 | 52.83356 | 10.07368 | 18479 ft | 354 kts | 7° |
| 2026-05-04 20:43 | 52.85757 | 10.08072 | 18125 ft | 347 kts | 7° |
| 2026-05-04 20:43 | 52.88021 | 10.08738 | 17684 ft | 344 kts | 7° |
| 2026-05-04 20:43 | 52.90364 | 10.09424 | 17211 ft | 341 kts | 7° |
| 2026-05-04 20:44 | 52.92690 | 10.10105 | 16733 ft | 338 kts | 8° |
| 2026-05-04 20:44 | 52.95003 | 10.10784 | 16260 ft | 336 kts | 8° |
| 2026-05-04 20:44 | 52.97295 | 10.11462 | 15797 ft | 334 kts | 8° |
| 2026-05-04 20:44 | 52.99570 | 10.12135 | 15330 ft | 331 kts | 8° |
| 2026-05-04 20:45 | 53.01806 | 10.12795 | 14887 ft | 329 kts | 8° |
| 2026-05-04 20:45 | 53.04053 | 10.13462 | 14443 ft | 327 kts | 8° |
| 2026-05-04 20:45 | 53.06288 | 10.14130 | 14010 ft | 325 kts | 8° |
| 2026-05-04 20:45 | 53.08510 | 10.14793 | 13558 ft | 323 kts | 8° |
| 2026-05-04 20:46 | 53.10714 | 10.15448 | 13091 ft | 321 kts | 8° |
| 2026-05-04 20:46 | 53.12903 | 10.16098 | 12694 ft | 318 kts | 8° |
| 2026-05-04 20:46 | 53.15078 | 10.16742 | 12218 ft | 317 kts | 8° |
| 2026-05-04 20:46 | 53.17238 | 10.17382 | 11765 ft | 315 kts | 8° |
| 2026-05-04 20:47 | 53.19390 | 10.18024 | 11324 ft | 313 kts | 8° |
| 2026-05-04 20:47 | 53.21528 | 10.18664 | 10897 ft | 311 kts | 8° |
| 2026-05-04 20:47 | 53.23652 | 10.19299 | 10468 ft | 310 kts | 8° |
| 2026-05-04 20:47 | 53.25764 | 10.19929 | 10054 ft | 308 kts | 8° |
| 2026-05-04 20:48 | 53.27856 | 10.20550 | 9769 ft | 301 kts | 8° |
| 2026-05-04 20:48 | 53.29901 | 10.21161 | 9402 ft | 297 kts | 8° |
| 2026-05-04 20:48 | 53.31898 | 10.21759 | 9026 ft | 294 kts | 8° |
| 2026-05-04 20:48 | 53.33908 | 10.22363 | 8632 ft | 292 kts | 8° |
| 2026-05-04 20:49 | 53.35902 | 10.22962 | 8233 ft | 290 kts | 8° |
| 2026-05-04 20:49 | 53.37882 | 10.23558 | 7838 ft | 288 kts | 8° |
| 2026-05-04 20:49 | 53.39846 | 10.24150 | 7459 ft | 286 kts | 8° |
| 2026-05-04 20:49 | 53.41801 | 10.24739 | 7078 ft | 284 kts | 8° |
| 2026-05-04 20:50 | 53.43744 | 10.25327 | 6712 ft | 283 kts | 8° |
| 2026-05-04 20:50 | 53.45672 | 10.25911 | 6351 ft | 281 kts | 8° |
| 2026-05-04 20:50 | 53.47593 | 10.26494 | 5960 ft | 280 kts | 9° |
| 2026-05-04 20:50 | 53.49500 | 10.27074 | 5582 ft | 278 kts | 8° |
| 2026-05-04 20:51 | 53.51396 | 10.27648 | 5205 ft | 276 kts | 9° |
| 2026-05-04 20:51 | 53.53257 | 10.28211 | 4831 ft | 275 kts | 9° |
| 2026-05-04 20:51 | 53.55134 | 10.28777 | 4442 ft | 273 kts | 9° |
| 2026-05-04 20:51 | 53.57003 | 10.29343 | 4059 ft | 272 kts | 8° |
| 2026-05-04 20:52 | 53.58851 | 10.29901 | 3706 ft | 269 kts | 8° |
| 2026-05-04 20:52 | 53.60692 | 10.30458 | 3360 ft | 266 kts | 8° |
| 2026-05-04 20:52 | 53.62505 | 10.31007 | 3043 ft | 263 kts | 8° |
| 2026-05-04 20:52 | 53.64303 | 10.31552 | 2993 ft | 264 kts | 8° |
| 2026-05-04 20:53 | 53.66108 | 10.32099 | 2993 ft | 264 kts | 8° |
| 2026-05-04 20:53 | 53.67919 | 10.32652 | 3004 ft | 264 kts | 8° |
| 2026-05-04 20:53 | 53.69702 | 10.33198 | 2999 ft | 264 kts | 8° |
| 2026-05-04 20:53 | 53.71506 | 10.33744 | 3000 ft | 263 kts | 7° |
| 2026-05-04 20:54 | 53.73307 | 10.33640 | 2999 ft | 259 kts | 341° |
| 2026-05-04 20:54 | 53.74862 | 10.32198 | 3011 ft | 256 kts | 315° |
| 2026-05-04 20:54 | 53.75856 | 10.29764 | 3003 ft | 253 kts | 288° |
| 2026-05-04 20:54 | 53.76045 | 10.26842 | 3003 ft | 252 kts | 262° |
| 2026-05-04 20:55 | 53.75426 | 10.24097 | 2997 ft | 253 kts | 236° |
| 2026-05-04 20:55 | 53.74319 | 10.21784 | 3003 ft | 253 kts | 231° |
| 2026-05-04 20:55 | 53.73192 | 10.19493 | 2950 ft | 254 kts | 231° |
| 2026-05-04 20:55 | 53.72072 | 10.17209 | 2678 ft | 252 kts | 231° |
| 2026-05-04 20:56 | 53.70972 | 10.14962 | 2362 ft | 251 kts | 232° |
| 2026-05-04 20:56 | 53.69863 | 10.12699 | 2024 ft | 251 kts | 232° |
| 2026-05-04 20:56 | 53.68743 | 10.10417 | 1681 ft | 255 kts | 231° |
| 2026-05-04 20:56 | 53.67636 | 10.08167 | 1337 ft | 242 kts | 232° |
| 2026-05-04 20:57 | 53.66607 | 10.06077 | 1041 ft | 223 kts | 232° |
| 2026-05-04 20:57 | 53.65651 | 10.04135 | 730 ft | 206 kts | 233° |
| 2026-05-04 20:57 | 53.64784 | 10.02378 | 481 ft | 182 kts | 232° |
| 2026-05-04 20:57 | 53.64042 | 10.00864 | 208 ft | 161 kts | 234° |
| 2026-05-04 20:58 | 53.63362 | 9.99479 | 50 ft | 142 kts | 232° |
| 2026-05-04 20:58 | 53.62841 | 9.98389 | 51 ft | 95 kts | 231° |
| 2026-05-04 20:58 | 53.62535 | 9.97796 | 47 ft | 38 kts | 219° |
| 2026-05-04 20:58 | 53.62449 | 9.97810 | 48 ft | 7 kts | 116° |
| 2026-05-04 20:59 | 53.62431 | 9.97882 | 50 ft | 7 kts | 102° |
| 2026-05-04 20:59 | 53.62431 | 9.97918 | 50 ft | 0 kts | 84° |
| 2026-05-04 20:59 | 53.62432 | 9.97936 | 50 ft | 5 kts | 83° |
| 2026-05-04 20:59 | 53.62448 | 9.98037 | 50 ft | 13 kts | 69° |
| 2026-05-04 21:00 | 53.62500 | 9.98168 | 48 ft | 15 kts | 51° |
| 2026-05-04 21:00 | 53.62568 | 9.98307 | 51 ft | 16 kts | 50° |
| 2026-05-04 21:00 | 53.62644 | 9.98463 | 51 ft | 18 kts | 50° |
| 2026-05-04 21:00 | 53.62730 | 9.98634 | 51 ft | 20 kts | 50° |
| 2026-05-04 21:01 | 53.62809 | 9.98795 | 50 ft | 18 kts | 50° |
| 2026-05-04 21:01 | 53.62894 | 9.98967 | 50 ft | 20 kts | 50° |
| 2026-05-04 21:01 | 53.62987 | 9.99154 | 50 ft | 22 kts | 50° |
| 2026-05-04 21:01 | 53.63078 | 9.99349 | 50 ft | 22 kts | 53° |
| 2026-05-04 21:02 | 53.63164 | 9.99549 | 49 ft | 18 kts | 53° |
| 2026-05-04 21:02 | 53.63222 | 9.99687 | 50 ft | 11 kts | 71° |
| 2026-05-04 21:02 | 53.63193 | 9.99785 | 50 ft | 11 kts | 147° |
| 2026-05-04 21:02 | 53.63128 | 9.99857 | 50 ft | 11 kts | 118° |
| 2026-05-04 21:03 | 53.63154 | 9.99980 | 51 ft | 13 kts | 51° |
| 2026-05-04 21:03 | 53.63214 | 10.00105 | 51 ft | 15 kts | 51° |
| 2026-05-04 21:03 | 53.63243 | 10.00250 | 51 ft | 8 kts | 86° |
| 2026-05-04 21:03 | 53.63246 | 10.00343 | 51 ft | 5 kts | 87° |
| 2026-05-04 21:04 | 53.63247 | 10.00358 | 51 ft | 0 kts | 87° |